Stanley, NM (87056)

10:24 MST le 26 février 2017 (GMT -0700)
Rural Stanley | | Change Station

Alt. 6414 ft 35.13 °N, 106.11 °W | Updated 1 minute ago

Nuageux
Nuageux
37.9 ° F
Paraît 29 ° F
N
15.0
Vent Variable Vent de OSO
Gusts 17.0 mph

Aujourd'hui
Haut(e) -- | Bas -- ° F
--% Risque de précip.
Hier
Haut(e) -- | Bas -- ° F
Precip. -- pouce
Pression 29.96 pouce
Visibilité 10.0 Miles terrestres
Nuages Nuages épars 4000 ft
Nuages épars 12000 ft
Refroidissement éolien 29 ° F
Point de rosée 18 ° F
Humidité 44%
Précipitations 0.00 pouce
Profondeur de la couche neigeuse Non disponible.
6:36 AM 5:57 PM
Nouvelle lune, 0% visible
METAR K0E0 261715Z AUTO 26016G20KT 10SM SCT040 SCT120 05/M07 A2996 RMK AO2 T00491071
Pression 29.96 pouce
Visibilité 10.0 Miles terrestres
Nuages Nuages épars 4000 ft
Nuages épars 12000 ft
Refroidissement éolien 29 ° F
Point de rosée 18 ° F
Humidité 44%
Précipitations 0.00 pouce
Profondeur de la couche neigeuse Non disponible.
6:36 AM 5:57 PM
Nouvelle lune, 0% visible
METAR K0E0 261715Z AUTO 26016G20KT 10SM SCT040 SCT120 05/M07 A2996 RMK AO2 T00491071

Get Your Daily Forecast Email!

Thanks for signing up!

Be on the lookout for a verification email in your inbox.

You'll start receiving the daily forecast at 8 AM.

×

10-Day Weather Forecast

Almanac

Astronomie

Feb. 26, 2017 Lever Coucher
Temps réel
Crépuscule civil
Crépuscule nautique
Crépuscule astronomique
Lune
Durée de lumière visible
Longueur du jour
Tomorrow will be .
, % of the Moon is Illuminated

Extrêmes aujourd'hui

State Highs State Lows

Community

WunderPhotos

Upload Photos

1,962,540 Photos téléchargées !

WunderBlog® & News

Nearby

Qualité de l'air

  Qualité de l'air Indice de la qualité de l'air Polluant
Not available.

Épaisseur de neige

Station Depth Altitude

Activité sismique

Ville Distance Mag. Time & Date
Minimum magnitude displayed is 2.5.

Températures des eaux côtières

Lieu Température

Stations

Stations météo à proximité

Emplacement de la station Température Refroidissement éolien Point de rosée Humidité Vent Precip. Alt. Mise à jour Type
                   

Watches & Warnings

There are currently no watches in effect.